sensor_id;sensor_type;location;lat;lon;timestamp;pressure;altitude;pressure_sealevel;temperature
60966;BMP180;46834;51.100;6.886;2022-07-23T00:01:33;101379.00;;;25.10
60966;BMP180;46834;51.100;6.886;2022-07-23T00:04:00;101389.00;;;25.10
60966;BMP180;46834;51.100;6.886;2022-07-23T00:06:26;101398.00;;;25.10
60966;BMP180;46834;51.100;6.886;2022-07-23T00:08:52;101399.00;;;25.10
60966;BMP180;46834;51.100;6.886;2022-07-23T00:11:18;101380.00;;;25.00
60966;BMP180;46834;51.100;6.886;2022-07-23T00:13:44;101377.00;;;25.00
60966;BMP180;46834;51.100;6.886;2022-07-23T00:16:10;101364.00;;;24.90
60966;BMP180;46834;51.100;6.886;2022-07-23T00:18:36;101380.00;;;24.90
60966;BMP180;46834;51.100;6.886;2022-07-23T00:21:02;101376.00;;;24.90
60966;BMP180;46834;51.100;6.886;2022-07-23T00:23:27;101376.00;;;24.80
60966;BMP180;46834;51.100;6.886;2022-07-23T00:25:54;101383.00;;;24.80
60966;BMP180;46834;51.100;6.886;2022-07-23T00:28:20;101372.00;;;24.80
60966;BMP180;46834;51.100;6.886;2022-07-23T00:30:46;101378.00;;;24.80
60966;BMP180;46834;51.100;6.886;2022-07-23T00:33:12;101368.00;;;24.70
60966;BMP180;46834;51.100;6.886;2022-07-23T00:35:40;101365.00;;;24.70
60966;BMP180;46834;51.100;6.886;2022-07-23T00:38:08;101370.00;;;24.70
60966;BMP180;46834;51.100;6.886;2022-07-23T00:40:36;101362.00;;;24.70
60966;BMP180;46834;51.100;6.886;2022-07-23T00:43:03;101359.00;;;24.70
60966;BMP180;46834;51.100;6.886;2022-07-23T00:45:29;101366.00;;;24.60
60966;BMP180;46834;51.100;6.886;2022-07-23T00:47:55;101380.00;;;24.60
60966;BMP180;46834;51.100;6.886;2022-07-23T00:50:20;101375.00;;;24.60
60966;BMP180;46834;51.100;6.886;2022-07-23T00:52:46;101367.00;;;24.60
60966;BMP180;46834;51.100;6.886;2022-07-23T00:55:13;101370.00;;;24.60
60966;BMP180;46834;51.100;6.886;2022-07-23T00:57:41;101370.00;;;24.60
60966;BMP180;46834;51.100;6.886;2022-07-23T01:00:11;101368.00;;;24.50
60966;BMP180;46834;51.100;6.886;2022-07-23T01:02:37;101364.00;;;24.50
60966;BMP180;46834;51.100;6.886;2022-07-23T01:05:03;101364.00;;;24.50
60966;BMP180;46834;51.100;6.886;2022-07-23T01:07:30;101363.00;;;24.50
60966;BMP180;46834;51.100;6.886;2022-07-23T01:09:56;101358.00;;;24.50
60966;BMP180;46834;51.100;6.886;2022-07-23T01:12:22;101363.00;;;24.50
60966;BMP180;46834;51.100;6.886;2022-07-23T01:15:13;101362.00;;;24.40
60966;BMP180;46834;51.100;6.886;2022-07-23T01:17:39;101357.00;;;24.40
60966;BMP180;46834;51.100;6.886;2022-07-23T01:20:05;101364.00;;;24.40
60966;BMP180;46834;51.100;6.886;2022-07-23T01:22:31;101356.00;;;24.40
60966;BMP180;46834;51.100;6.886;2022-07-23T01:24:57;101361.00;;;24.40
60966;BMP180;46834;51.100;6.886;2022-07-23T01:27:22;101365.00;;;24.40
60966;BMP180;46834;51.100;6.886;2022-07-23T01:29:48;101371.00;;;24.40
60966;BMP180;46834;51.100;6.886;2022-07-23T01:32:13;101372.00;;;24.40
60966;BMP180;46834;51.100;6.886;2022-07-23T01:34:39;101382.00;;;24.40
60966;BMP180;46834;51.100;6.886;2022-07-23T01:37:06;101372.00;;;24.30
60966;BMP180;46834;51.100;6.886;2022-07-23T01:39:31;101358.00;;;24.30
60966;BMP180;46834;51.100;6.886;2022-07-23T01:41:57;101351.00;;;24.30
60966;BMP180;46834;51.100;6.886;2022-07-23T01:44:23;101368.00;;;24.30
60966;BMP180;46834;51.100;6.886;2022-07-23T01:46:48;101370.00;;;24.30
60966;BMP180;46834;51.100;6.886;2022-07-23T01:49:14;101355.00;;;24.30
60966;BMP180;46834;51.100;6.886;2022-07-23T01:51:40;101347.00;;;24.30
60966;BMP180;46834;51.100;6.886;2022-07-23T01:54:32;101347.00;;;24.20
60966;BMP180;46834;51.100;6.886;2022-07-23T01:56:59;101345.00;;;24.20
60966;BMP180;46834;51.100;6.886;2022-07-23T01:59:25;101332.00;;;24.20
60966;BMP180;46834;51.100;6.886;2022-07-23T02:01:52;101341.00;;;24.20
60966;BMP180;46834;51.100;6.886;2022-07-23T02:04:20;101348.00;;;24.10
60966;BMP180;46834;51.100;6.886;2022-07-23T02:06:46;101348.00;;;24.10
60966;BMP180;46834;51.100;6.886;2022-07-23T02:09:12;101341.00;;;24.10
60966;BMP180;46834;51.100;6.886;2022-07-23T02:11:38;101344.00;;;24.00
60966;BMP180;46834;51.100;6.886;2022-07-23T02:14:04;101343.00;;;24.00
60966;BMP180;46834;51.100;6.886;2022-07-23T02:16:29;101346.00;;;24.00
60966;BMP180;46834;51.100;6.886;2022-07-23T02:18:55;101350.00;;;23.90
60966;BMP180;46834;51.100;6.886;2022-07-23T02:21:21;101348.00;;;23.90
60966;BMP180;46834;51.100;6.886;2022-07-23T02:23:47;101345.00;;;23.90
60966;BMP180;46834;51.100;6.886;2022-07-23T02:26:12;101324.00;;;23.90
60966;BMP180;46834;51.100;6.886;2022-07-23T02:28:38;101332.00;;;23.90
60966;BMP180;46834;51.100;6.886;2022-07-23T02:31:04;101338.00;;;23.90
60966;BMP180;46834;51.100;6.886;2022-07-23T02:33:29;101339.00;;;23.90
60966;BMP180;46834;51.100;6.886;2022-07-23T02:35:55;101331.00;;;23.80
60966;BMP180;46834;51.100;6.886;2022-07-23T02:38:21;101336.00;;;23.80
60966;BMP180;46834;51.100;6.886;2022-07-23T02:40:47;101340.00;;;23.80
60966;BMP180;46834;51.100;6.886;2022-07-23T02:43:12;101348.00;;;23.80
60966;BMP180;46834;51.100;6.886;2022-07-23T02:45:38;101333.00;;;23.70
60966;BMP180;46834;51.100;6.886;2022-07-23T02:48:04;101339.00;;;23.70
60966;BMP180;46834;51.100;6.886;2022-07-23T02:50:30;101345.00;;;23.70
60966;BMP180;46834;51.100;6.886;2022-07-23T02:52:55;101347.00;;;23.70
60966;BMP180;46834;51.100;6.886;2022-07-23T02:55:21;101337.00;;;23.60
60966;BMP180;46834;51.100;6.886;2022-07-23T02:57:47;101333.00;;;23.60
60966;BMP180;46834;51.100;6.886;2022-07-23T03:00:13;101342.00;;;23.60
60966;BMP180;46834;51.100;6.886;2022-07-23T03:02:39;101344.00;;;23.60
60966;BMP180;46834;51.100;6.886;2022-07-23T03:05:06;101336.00;;;23.60
60966;BMP180;46834;51.100;6.886;2022-07-23T03:07:32;101340.00;;;23.50
60966;BMP180;46834;51.100;6.886;2022-07-23T03:09:58;101336.00;;;23.50
60966;BMP180;46834;51.100;6.886;2022-07-23T03:12:23;101334.00;;;23.50
60966;BMP180;46834;51.100;6.886;2022-07-23T03:14:49;101343.00;;;23.50
60966;BMP180;46834;51.100;6.886;2022-07-23T03:17:15;101333.00;;;23.50
60966;BMP180;46834;51.100;6.886;2022-07-23T03:19:41;101340.00;;;23.50
60966;BMP180;46834;51.100;6.886;2022-07-23T03:22:07;101336.00;;;23.50
60966;BMP180;46834;51.100;6.886;2022-07-23T03:24:33;101340.00;;;23.40
60966;BMP180;46834;51.100;6.886;2022-07-23T03:27:17;101342.00;;;23.40
60966;BMP180;46834;51.100;6.886;2022-07-23T03:29:42;101348.00;;;23.40
60966;BMP180;46834;51.100;6.886;2022-07-23T03:32:08;101343.00;;;23.30
60966;BMP180;46834;51.100;6.886;2022-07-23T03:34:34;101343.00;;;23.30
60966;BMP180;46834;51.100;6.886;2022-07-23T03:37:00;101339.00;;;23.30
60966;BMP180;46834;51.100;6.886;2022-07-23T03:39:25;101339.00;;;23.20
60966;BMP180;46834;51.100;6.886;2022-07-23T03:41:51;101343.00;;;23.20
60966;BMP180;46834;51.100;6.886;2022-07-23T03:44:16;101344.00;;;23.20
60966;BMP180;46834;51.100;6.886;2022-07-23T03:46:42;101340.00;;;23.20
60966;BMP180;46834;51.100;6.886;2022-07-23T03:49:08;101340.00;;;23.20
60966;BMP180;46834;51.100;6.886;2022-07-23T03:51:33;101338.00;;;23.20
60966;BMP180;46834;51.100;6.886;2022-07-23T03:53:59;101339.00;;;23.20
60966;BMP180;46834;51.100;6.886;2022-07-23T03:56:25;101333.00;;;23.10
60966;BMP180;46834;51.100;6.886;2022-07-23T03:58:51;101336.00;;;23.10
60966;BMP180;46834;51.100;6.886;2022-07-23T04:01:17;101340.00;;;23.10
60966;BMP180;46834;51.100;6.886;2022-07-23T04:03:43;101342.00;;;23.10
60966;BMP180;46834;51.100;6.886;2022-07-23T04:06:08;101335.00;;;23.10
60966;BMP180;46834;51.100;6.886;2022-07-23T04:08:34;101338.00;;;23.10
60966;BMP180;46834;51.100;6.886;2022-07-23T04:11:00;101340.00;;;23.10
60966;BMP180;46834;51.100;6.886;2022-07-23T04:13:26;101341.00;;;23.10
60966;BMP180;46834;51.100;6.886;2022-07-23T04:15:51;101336.00;;;23.10
60966;BMP180;46834;51.100;6.886;2022-07-23T04:18:17;101334.00;;;23.10
60966;BMP180;46834;51.100;6.886;2022-07-23T04:20:44;101355.00;;;23.10
60966;BMP180;46834;51.100;6.886;2022-07-23T04:23:10;101342.00;;;23.10
60966;BMP180;46834;51.100;6.886;2022-07-23T04:25:36;101345.00;;;23.10
60966;BMP180;46834;51.100;6.886;2022-07-23T04:28:02;101337.00;;;23.10
60966;BMP180;46834;51.100;6.886;2022-07-23T04:30:27;101345.00;;;23.10
60966;BMP180;46834;51.100;6.886;2022-07-23T04:32:53;101345.00;;;23.10
60966;BMP180;46834;51.100;6.886;2022-07-23T04:35:19;101349.00;;;23.10
60966;BMP180;46834;51.100;6.886;2022-07-23T04:37:45;101357.00;;;23.10
60966;BMP180;46834;51.100;6.886;2022-07-23T04:40:12;101362.00;;;23.10
60966;BMP180;46834;51.100;6.886;2022-07-23T04:42:39;101367.00;;;23.10
60966;BMP180;46834;51.100;6.886;2022-07-23T04:45:05;101368.00;;;23.10
60966;BMP180;46834;51.100;6.886;2022-07-23T04:47:31;101380.00;;;23.10
60966;BMP180;46834;51.100;6.886;2022-07-23T04:49:57;101385.00;;;23.10
60966;BMP180;46834;51.100;6.886;2022-07-23T04:52:23;101384.00;;;23.20
60966;BMP180;46834;51.100;6.886;2022-07-23T04:54:50;101393.00;;;23.20
60966;BMP180;46834;51.100;6.886;2022-07-23T04:57:16;101390.00;;;23.20
60966;BMP180;46834;51.100;6.886;2022-07-23T04:59:41;101384.00;;;23.20
60966;BMP180;46834;51.100;6.886;2022-07-23T05:02:07;101388.00;;;23.30
60966;BMP180;46834;51.100;6.886;2022-07-23T05:04:33;101396.00;;;23.30
60966;BMP180;46834;51.100;6.886;2022-07-23T05:06:59;101398.00;;;23.30
60966;BMP180;46834;51.100;6.886;2022-07-23T05:09:25;101400.00;;;23.30
60966;BMP180;46834;51.100;6.886;2022-07-23T05:11:51;101399.00;;;23.40
60966;BMP180;46834;51.100;6.886;2022-07-23T05:14:17;101406.00;;;23.40
60966;BMP180;46834;51.100;6.886;2022-07-23T05:16:42;101402.00;;;23.40
60966;BMP180;46834;51.100;6.886;2022-07-23T05:19:08;101403.00;;;23.50
60966;BMP180;46834;51.100;6.886;2022-07-23T05:21:34;101411.00;;;23.50
60966;BMP180;46834;51.100;6.886;2022-07-23T05:24:00;101411.00;;;23.50
60966;BMP180;46834;51.100;6.886;2022-07-23T05:26:26;101416.00;;;23.50
60966;BMP180;46834;51.100;6.886;2022-07-23T05:28:51;101423.00;;;23.60
60966;BMP180;46834;51.100;6.886;2022-07-23T05:31:18;101433.00;;;23.60
60966;BMP180;46834;51.100;6.886;2022-07-23T05:33:44;101418.00;;;23.60
60966;BMP180;46834;51.100;6.886;2022-07-23T05:36:10;101417.00;;;23.70
60966;BMP180;46834;51.100;6.886;2022-07-23T05:38:36;101417.00;;;23.70
60966;BMP180;46834;51.100;6.886;2022-07-23T05:41:02;101426.00;;;23.70
60966;BMP180;46834;51.100;6.886;2022-07-23T05:43:28;101433.00;;;23.70
60966;BMP180;46834;51.100;6.886;2022-07-23T05:45:54;101430.00;;;23.80
60966;BMP180;46834;51.100;6.886;2022-07-23T05:48:20;101429.00;;;23.80
60966;BMP180;46834;51.100;6.886;2022-07-23T05:50:47;101414.00;;;23.80
60966;BMP180;46834;51.100;6.886;2022-07-23T05:53:13;101418.00;;;23.80
60966;BMP180;46834;51.100;6.886;2022-07-23T05:55:38;101426.00;;;23.90
60966;BMP180;46834;51.100;6.886;2022-07-23T05:58:04;101428.00;;;23.90
60966;BMP180;46834;51.100;6.886;2022-07-23T06:00:30;101432.00;;;23.90
60966;BMP180;46834;51.100;6.886;2022-07-23T06:02:56;101427.00;;;23.90
60966;BMP180;46834;51.100;6.886;2022-07-23T06:05:23;101434.00;;;23.90
60966;BMP180;46834;51.100;6.886;2022-07-23T06:07:49;101431.00;;;24.00
60966;BMP180;46834;51.100;6.886;2022-07-23T06:10:15;101437.00;;;24.00
60966;BMP180;46834;51.100;6.886;2022-07-23T06:12:41;101418.00;;;24.00
60966;BMP180;46834;51.100;6.886;2022-07-23T06:15:08;101433.00;;;24.00
60966;BMP180;46834;51.100;6.886;2022-07-23T06:17:34;101445.00;;;24.10
60966;BMP180;46834;51.100;6.886;2022-07-23T06:20:00;101438.00;;;24.10
60966;BMP180;46834;51.100;6.886;2022-07-23T06:22:26;101443.00;;;24.10
60966;BMP180;46834;51.100;6.886;2022-07-23T06:24:51;101435.00;;;24.20
60966;BMP180;46834;51.100;6.886;2022-07-23T06:27:18;101435.00;;;24.20
60966;BMP180;46834;51.100;6.886;2022-07-23T06:29:43;101456.00;;;24.40
60966;BMP180;46834;51.100;6.886;2022-07-23T06:32:09;101451.00;;;24.70
60966;BMP180;46834;51.100;6.886;2022-07-23T06:34:35;101452.00;;;25.00
60966;BMP180;46834;51.100;6.886;2022-07-23T06:37:01;101455.00;;;25.30
60966;BMP180;46834;51.100;6.886;2022-07-23T06:39:27;101454.00;;;25.70
60966;BMP180;46834;51.100;6.886;2022-07-23T06:41:52;101458.00;;;26.00
60966;BMP180;46834;51.100;6.886;2022-07-23T06:44:18;101469.00;;;26.50
60966;BMP180;46834;51.100;6.886;2022-07-23T06:46:44;101470.00;;;26.90
60966;BMP180;46834;51.100;6.886;2022-07-23T06:49:10;101470.00;;;27.40
60966;BMP180;46834;51.100;6.886;2022-07-23T06:51:36;101471.00;;;27.90
60966;BMP180;46834;51.100;6.886;2022-07-23T06:54:02;101478.00;;;28.30
60966;BMP180;46834;51.100;6.886;2022-07-23T06:56:28;101483.00;;;28.80
60966;BMP180;46834;51.100;6.886;2022-07-23T06:58:53;101479.00;;;29.20
60966;BMP180;46834;51.100;6.886;2022-07-23T07:01:19;101487.00;;;29.60
60966;BMP180;46834;51.100;6.886;2022-07-23T07:03:45;101492.00;;;30.00
60966;BMP180;46834;51.100;6.886;2022-07-23T07:06:11;101498.00;;;30.30
60966;BMP180;46834;51.100;6.886;2022-07-23T07:08:37;101500.00;;;30.70
60966;BMP180;46834;51.100;6.886;2022-07-23T07:11:03;101507.00;;;31.00
60966;BMP180;46834;51.100;6.886;2022-07-23T07:13:29;101512.00;;;31.40
60966;BMP180;46834;51.100;6.886;2022-07-23T07:15:55;101513.00;;;31.70
60966;BMP180;46834;51.100;6.886;2022-07-23T07:18:21;101512.00;;;32.00
60966;BMP180;46834;51.100;6.886;2022-07-23T07:20:46;101518.00;;;32.40
60966;BMP180;46834;51.100;6.886;2022-07-23T07:23:13;101514.00;;;32.80
60966;BMP180;46834;51.100;6.886;2022-07-23T07:25:38;101526.00;;;33.10
60966;BMP180;46834;51.100;6.886;2022-07-23T07:28:04;101525.00;;;33.50
60966;BMP180;46834;51.100;6.886;2022-07-23T07:30:30;101536.00;;;33.90
60966;BMP180;46834;51.100;6.886;2022-07-23T07:32:56;101538.00;;;34.30
60966;BMP180;46834;51.100;6.886;2022-07-23T07:35:21;101529.00;;;34.70
60966;BMP180;46834;51.100;6.886;2022-07-23T07:37:47;101533.00;;;35.00
60966;BMP180;46834;51.100;6.886;2022-07-23T07:40:13;101545.00;;;35.40
60966;BMP180;46834;51.100;6.886;2022-07-23T07:42:47;101554.00;;;35.70
60966;BMP180;46834;51.100;6.886;2022-07-23T07:45:13;101536.00;;;35.90
60966;BMP180;46834;51.100;6.886;2022-07-23T07:47:38;101560.00;;;36.20
60966;BMP180;46834;51.100;6.886;2022-07-23T07:50:05;101551.00;;;36.40
60966;BMP180;46834;51.100;6.886;2022-07-23T07:52:30;101557.00;;;36.50
60966;BMP180;46834;51.100;6.886;2022-07-23T07:54:56;101559.00;;;36.50
60966;BMP180;46834;51.100;6.886;2022-07-23T07:57:22;101552.00;;;36.40
60966;BMP180;46834;51.100;6.886;2022-07-23T07:59:47;101554.00;;;36.20
60966;BMP180;46834;51.100;6.886;2022-07-23T08:02:13;101555.00;;;35.90
60966;BMP180;46834;51.100;6.886;2022-07-23T08:04:39;101554.00;;;35.70
60966;BMP180;46834;51.100;6.886;2022-07-23T08:07:04;101551.00;;;35.30
60966;BMP180;46834;51.100;6.886;2022-07-23T08:09:30;101564.00;;;35.00
60966;BMP180;46834;51.100;6.886;2022-07-23T08:11:55;101570.00;;;34.60
60966;BMP180;46834;51.100;6.886;2022-07-23T08:14:22;101573.00;;;34.20
60966;BMP180;46834;51.100;6.886;2022-07-23T08:16:47;101555.00;;;33.90
60966;BMP180;46834;51.100;6.886;2022-07-23T08:19:13;101563.00;;;33.50
60966;BMP180;46834;51.100;6.886;2022-07-23T08:21:39;101565.00;;;33.20
60966;BMP180;46834;51.100;6.886;2022-07-23T08:24:05;101560.00;;;32.90
60966;BMP180;46834;51.100;6.886;2022-07-23T08:26:30;101571.00;;;32.70
60966;BMP180;46834;51.100;6.886;2022-07-23T08:28:56;101567.00;;;32.40
60966;BMP180;46834;51.100;6.886;2022-07-23T08:31:22;101566.00;;;32.20
60966;BMP180;46834;51.100;6.886;2022-07-23T08:33:47;101565.00;;;32.00
60966;BMP180;46834;51.100;6.886;2022-07-23T08:36:13;101562.00;;;31.80
60966;BMP180;46834;51.100;6.886;2022-07-23T08:38:39;101560.00;;;31.50
60966;BMP180;46834;51.100;6.886;2022-07-23T08:41:07;101565.00;;;31.30
60966;BMP180;46834;51.100;6.886;2022-07-23T08:43:33;101567.00;;;31.20
60966;BMP180;46834;51.100;6.886;2022-07-23T08:46:02;101575.00;;;31.10
60966;BMP180;46834;51.100;6.886;2022-07-23T08:48:34;101571.00;;;30.90
60966;BMP180;46834;51.100;6.886;2022-07-23T08:51:03;101572.00;;;30.80
60966;BMP180;46834;51.100;6.886;2022-07-23T08:53:31;101565.00;;;30.70
60966;BMP180;46834;51.100;6.886;2022-07-23T08:56:00;101566.00;;;30.70
60966;BMP180;46834;51.100;6.886;2022-07-23T08:58:30;101570.00;;;30.60
60966;BMP180;46834;51.100;6.886;2022-07-23T09:00:57;101574.00;;;30.50
60966;BMP180;46834;51.100;6.886;2022-07-23T09:03:33;101577.00;;;30.40
60966;BMP180;46834;51.100;6.886;2022-07-23T09:06:00;101571.00;;;30.40
60966;BMP180;46834;51.100;6.886;2022-07-23T09:08:41;101574.00;;;30.30
60966;BMP180;46834;51.100;6.886;2022-07-23T09:11:15;101569.00;;;30.20
60966;BMP180;46834;51.100;6.886;2022-07-23T09:13:53;101568.00;;;30.10
60966;BMP180;46834;51.100;6.886;2022-07-23T09:16:29;101570.00;;;30.10
60966;BMP180;46834;51.100;6.886;2022-07-23T09:19:04;101572.00;;;30.10
60966;BMP180;46834;51.100;6.886;2022-07-23T09:21:38;101571.00;;;30.00
60966;BMP180;46834;51.100;6.886;2022-07-23T09:24:12;101570.00;;;30.00
60966;BMP180;46834;51.100;6.886;2022-07-23T09:26:44;101563.00;;;30.00
60966;BMP180;46834;51.100;6.886;2022-07-23T09:29:21;101573.00;;;30.00
60966;BMP180;46834;51.100;6.886;2022-07-23T09:31:51;101575.00;;;29.90
60966;BMP180;46834;51.100;6.886;2022-07-23T09:34:25;101586.00;;;29.90
60966;BMP180;46834;51.100;6.886;2022-07-23T09:39:37;101582.00;;;29.80
60966;BMP180;46834;51.100;6.886;2022-07-23T09:42:17;101588.00;;;29.70
60966;BMP180;46834;51.100;6.886;2022-07-23T09:44:53;101588.00;;;29.80
60966;BMP180;46834;51.100;6.886;2022-07-23T09:47:21;101584.00;;;29.80
60966;BMP180;46834;51.100;6.886;2022-07-23T09:52:29;101586.00;;;29.70
60966;BMP180;46834;51.100;6.886;2022-07-23T09:55:01;101577.00;;;29.70
60966;BMP180;46834;51.100;6.886;2022-07-23T09:57:28;101577.00;;;29.70
60966;BMP180;46834;51.100;6.886;2022-07-23T10:00:00;101579.00;;;29.70
60966;BMP180;46834;51.100;6.886;2022-07-23T10:02:28;101573.00;;;29.70
60966;BMP180;46834;51.100;6.886;2022-07-23T10:04:57;101583.00;;;29.70
60966;BMP180;46834;51.100;6.886;2022-07-23T10:07:26;101579.00;;;29.60
60966;BMP180;46834;51.100;6.886;2022-07-23T10:09:53;101580.00;;;29.70
60966;BMP180;46834;51.100;6.886;2022-07-23T10:12:20;101575.00;;;29.60
60966;BMP180;46834;51.100;6.886;2022-07-23T10:15:01;101570.00;;;29.60
60966;BMP180;46834;51.100;6.886;2022-07-23T10:17:30;101566.00;;;29.60
60966;BMP180;46834;51.100;6.886;2022-07-23T10:19:56;101563.00;;;29.60
60966;BMP180;46834;51.100;6.886;2022-07-23T10:22:29;101558.00;;;29.60
60966;BMP180;46834;51.100;6.886;2022-07-23T10:28:04;101572.00;;;29.50
60966;BMP180;46834;51.100;6.886;2022-07-23T10:31:04;101563.00;;;29.50
60966;BMP180;46834;51.100;6.886;2022-07-23T10:36:51;101554.00;;;29.50
60966;BMP180;46834;51.100;6.886;2022-07-23T10:39:29;101561.00;;;29.50
60966;BMP180;46834;51.100;6.886;2022-07-23T10:42:10;101559.00;;;29.50
60966;BMP180;46834;51.100;6.886;2022-07-23T10:44:45;101555.00;;;29.50
60966;BMP180;46834;51.100;6.886;2022-07-23T10:47:26;101554.00;;;29.40
60966;BMP180;46834;51.100;6.886;2022-07-23T10:50:25;101544.00;;;29.40
60966;BMP180;46834;51.100;6.886;2022-07-23T10:53:08;101551.00;;;29.40
60966;BMP180;46834;51.100;6.886;2022-07-23T10:58:04;101555.00;;;29.40
60966;BMP180;46834;51.100;6.886;2022-07-23T11:00:34;101551.00;;;29.40
60966;BMP180;46834;51.100;6.886;2022-07-23T11:03:28;101548.00;;;29.30
60966;BMP180;46834;51.100;6.886;2022-07-23T11:05:54;101551.00;;;29.40
60966;BMP180;46834;51.100;6.886;2022-07-23T11:08:20;101554.00;;;29.40
60966;BMP180;46834;51.100;6.886;2022-07-23T11:10:56;101540.00;;;29.40
60966;BMP180;46834;51.100;6.886;2022-07-23T11:13:46;101549.00;;;29.40
60966;BMP180;46834;51.100;6.886;2022-07-23T11:16:15;101553.00;;;29.50
60966;BMP180;46834;51.100;6.886;2022-07-23T11:24:00;101550.00;;;29.50
60966;BMP180;46834;51.100;6.886;2022-07-23T11:32:03;101551.00;;;29.50
60966;BMP180;46834;51.100;6.886;2022-07-23T11:37:04;101541.00;;;29.50
60966;BMP180;46834;51.100;6.886;2022-07-23T11:39:31;101544.00;;;29.50
60966;BMP180;46834;51.100;6.886;2022-07-23T11:41:59;101549.00;;;29.60
60966;BMP180;46834;51.100;6.886;2022-07-23T11:44:29;101546.00;;;29.50
60966;BMP180;46834;51.100;6.886;2022-07-23T11:47:00;101545.00;;;29.60
60966;BMP180;46834;51.100;6.886;2022-07-23T11:49:27;101541.00;;;29.60
60966;BMP180;46834;51.100;6.886;2022-07-23T11:52:05;101544.00;;;29.50
60966;BMP180;46834;51.100;6.886;2022-07-23T11:54:34;101534.00;;;29.60
60966;BMP180;46834;51.100;6.886;2022-07-23T11:57:02;101539.00;;;29.60
60966;BMP180;46834;51.100;6.886;2022-07-23T11:59:32;101544.00;;;29.50
60966;BMP180;46834;51.100;6.886;2022-07-23T12:02:01;101539.00;;;29.60
60966;BMP180;46834;51.100;6.886;2022-07-23T12:04:46;101534.00;;;29.50
60966;BMP180;46834;51.100;6.886;2022-07-23T12:07:41;101542.00;;;29.50
60966;BMP180;46834;51.100;6.886;2022-07-23T12:13:14;101546.00;;;29.60
60966;BMP180;46834;51.100;6.886;2022-07-23T12:15:50;101525.00;;;29.50
60966;BMP180;46834;51.100;6.886;2022-07-23T12:18:21;101539.00;;;29.60
60966;BMP180;46834;51.100;6.886;2022-07-23T12:20:54;101541.00;;;29.60
60966;BMP180;46834;51.100;6.886;2022-07-23T12:23:24;101534.00;;;29.70
60966;BMP180;46834;51.100;6.886;2022-07-23T12:25:52;101533.00;;;29.70
60966;BMP180;46834;51.100;6.886;2022-07-23T12:30:55;101541.00;;;29.70
60966;BMP180;46834;51.100;6.886;2022-07-23T12:33:37;101534.00;;;29.70
60966;BMP180;46834;51.100;6.886;2022-07-23T12:36:09;101543.00;;;29.70
60966;BMP180;46834;51.100;6.886;2022-07-23T12:38:48;101540.00;;;29.70
60966;BMP180;46834;51.100;6.886;2022-07-23T12:41:15;101542.00;;;29.80
60966;BMP180;46834;51.100;6.886;2022-07-23T12:43:44;101553.00;;;29.80
60966;BMP180;46834;51.100;6.886;2022-07-23T12:46:20;101551.00;;;29.80
60966;BMP180;46834;51.100;6.886;2022-07-23T12:51:26;101550.00;;;29.90
60966;BMP180;46834;51.100;6.886;2022-07-23T12:54:06;101550.00;;;29.80
60966;BMP180;46834;51.100;6.886;2022-07-23T12:56:35;101546.00;;;29.90
60966;BMP180;46834;51.100;6.886;2022-07-23T12:59:06;101544.00;;;29.90
60966;BMP180;46834;51.100;6.886;2022-07-23T13:01:54;101553.00;;;29.90
60966;BMP180;46834;51.100;6.886;2022-07-23T13:04:23;101550.00;;;29.90
60966;BMP180;46834;51.100;6.886;2022-07-23T13:09:21;101552.00;;;30.00
60966;BMP180;46834;51.100;6.886;2022-07-23T13:11:49;101568.00;;;30.00
60966;BMP180;46834;51.100;6.886;2022-07-23T13:14:17;101562.00;;;30.00
60966;BMP180;46834;51.100;6.886;2022-07-23T13:16:44;101545.00;;;30.00
60966;BMP180;46834;51.100;6.886;2022-07-23T13:19:11;101563.00;;;30.00
60966;BMP180;46834;51.100;6.886;2022-07-23T13:21:37;101555.00;;;30.00
60966;BMP180;46834;51.100;6.886;2022-07-23T13:24:04;101564.00;;;30.00
60966;BMP180;46834;51.100;6.886;2022-07-23T13:26:29;101568.00;;;30.00
60966;BMP180;46834;51.100;6.886;2022-07-23T13:28:55;101554.00;;;30.00
60966;BMP180;46834;51.100;6.886;2022-07-23T13:31:21;101550.00;;;30.00
60966;BMP180;46834;51.100;6.886;2022-07-23T13:33:47;101543.00;;;30.00
60966;BMP180;46834;51.100;6.886;2022-07-23T13:36:13;101547.00;;;30.00
60966;BMP180;46834;51.100;6.886;2022-07-23T13:38:38;101538.00;;;30.00
60966;BMP180;46834;51.100;6.886;2022-07-23T13:41:05;101541.00;;;30.00
60966;BMP180;46834;51.100;6.886;2022-07-23T13:43:32;101531.00;;;30.10
60966;BMP180;46834;51.100;6.886;2022-07-23T13:45:58;101522.00;;;30.10
60966;BMP180;46834;51.100;6.886;2022-07-23T13:48:24;101542.00;;;30.10
60966;BMP180;46834;51.100;6.886;2022-07-23T13:50:51;101537.00;;;30.10
60966;BMP180;46834;51.100;6.886;2022-07-23T13:53:21;101536.00;;;30.10
60966;BMP180;46834;51.100;6.886;2022-07-23T13:55:50;101534.00;;;30.10
60966;BMP180;46834;51.100;6.886;2022-07-23T13:58:17;101531.00;;;30.10
60966;BMP180;46834;51.100;6.886;2022-07-23T14:00:47;101516.00;;;30.10
60966;BMP180;46834;51.100;6.886;2022-07-23T14:03:14;101533.00;;;30.10
60966;BMP180;46834;51.100;6.886;2022-07-23T14:05:40;101526.00;;;30.10
60966;BMP180;46834;51.100;6.886;2022-07-23T14:08:07;101528.00;;;30.10
60966;BMP180;46834;51.100;6.886;2022-07-23T14:10:33;101525.00;;;30.20
60966;BMP180;46834;51.100;6.886;2022-07-23T14:12:58;101524.00;;;30.20
60966;BMP180;46834;51.100;6.886;2022-07-23T14:15:28;101525.00;;;30.10
60966;BMP180;46834;51.100;6.886;2022-07-23T14:17:55;101529.00;;;30.20
60966;BMP180;46834;51.100;6.886;2022-07-23T14:20:22;101531.00;;;30.20
60966;BMP180;46834;51.100;6.886;2022-07-23T14:22:48;101530.00;;;30.20
60966;BMP180;46834;51.100;6.886;2022-07-23T14:25:16;101530.00;;;30.20
60966;BMP180;46834;51.100;6.886;2022-07-23T14:27:42;101526.00;;;30.20
60966;BMP180;46834;51.100;6.886;2022-07-23T14:30:11;101526.00;;;30.20
60966;BMP180;46834;51.100;6.886;2022-07-23T14:32:37;101523.00;;;30.20
60966;BMP180;46834;51.100;6.886;2022-07-23T14:35:05;101517.00;;;30.20
60966;BMP180;46834;51.100;6.886;2022-07-23T14:37:31;101530.00;;;30.20
60966;BMP180;46834;51.100;6.886;2022-07-23T14:39:57;101526.00;;;30.30